Traders Point, Indiana
Current Conditions -  °F | °C
As of 10:53 PM on Thursday 27 Nov 2014 (Local Time) from KEYE Reporting Station
Light Snow Light Snow  
Wind Chill: 15°   Ceiling: 3500
Heat Index: 25°   Visibility: 8mi
Dew Point: 18°   Wind: 10mph
Humidity: 75%   Direction: 310°NW
Pressure: 30.39"   Gusts: NA
Location:  39.8902°N, 86.2967°W
Report Text: KEYE 280353Z AUTO 31009KT 8SM -SN FEW020 SCT026 OVC035 M04/M08 A3039 RMK AO2 SNB35 SLP301 P0000 T10391078
Loading
Personal Weather Stations






























Interactive Weather Map New forecast layout! Learn more

10-Day Weather Forecast

Advertisements
Track Severe Weather on mobile